createdAt,value
2022-09-25T00:01:16.496Z,8.80
2022-09-25T00:03:43.631Z,8.80
2022-09-25T00:06:19.397Z,8.80
2022-09-25T00:08:47.114Z,8.80
2022-09-25T00:11:16.950Z,8.70
2022-09-25T00:13:45.176Z,8.60
2022-09-25T00:16:15.004Z,8.50
2022-09-25T00:19:01.493Z,8.50
2022-09-25T00:21:31.570Z,8.60
2022-09-25T00:24:03.845Z,8.70
2022-09-25T00:26:33.866Z,8.70
2022-09-25T00:29:01.694Z,8.80
2022-09-25T00:31:29.590Z,8.90
2022-09-25T00:34:02.583Z,8.80
2022-09-25T00:36:30.031Z,8.80
2022-09-25T00:38:57.164Z,8.80
2022-09-25T00:41:26.833Z,8.70
2022-09-25T00:43:58.350Z,8.70
2022-09-25T00:46:37.129Z,8.70
2022-09-25T00:49:14.976Z,8.70
2022-09-25T00:51:54.683Z,8.70
2022-09-25T00:54:30.338Z,8.80
2022-09-25T00:57:00.722Z,8.80
2022-09-25T00:59:33.286Z,8.70
2022-09-25T01:02:00.615Z,8.60
2022-09-25T01:04:31.128Z,8.60
2022-09-25T01:06:59.793Z,8.80
2022-09-25T01:09:28.332Z,8.70
2022-09-25T01:11:55.523Z,8.70
2022-09-25T01:14:23.292Z,8.70
2022-09-25T01:17:16.725Z,8.60
2022-09-25T01:20:02.314Z,8.70
2022-09-25T01:22:48.276Z,8.70
2022-09-25T01:25:26.642Z,8.60
2022-09-25T01:28:21.324Z,8.60
2022-09-25T01:30:53.298Z,8.50
2022-09-25T01:33:31.545Z,8.40
2022-09-25T01:36:28.699Z,8.50
2022-09-25T01:39:09.750Z,8.60
2022-09-25T01:41:47.488Z,8.50
2022-09-25T01:44:34.178Z,8.50
2022-09-25T01:47:18.840Z,8.30
2022-09-25T01:49:49.515Z,8.30
2022-09-25T01:52:22.701Z,8.30
2022-09-25T01:54:55.007Z,8.30
2022-09-25T01:57:30.588Z,8.20
2022-09-25T02:00:04.120Z,8.20
2022-09-25T02:02:37.251Z,8.10
2022-09-25T02:05:19.583Z,8.00
2022-09-25T02:07:55.948Z,7.90
2022-09-25T02:10:34.806Z,7.90
2022-09-25T02:13:15.710Z,7.90
2022-09-25T02:16:00.241Z,7.90
2022-09-25T02:18:49.440Z,7.90
2022-09-25T02:21:22.420Z,8.00
2022-09-25T02:24:15.873Z,7.90
2022-09-25T02:26:43.018Z,7.90
2022-09-25T02:29:10.500Z,8.00
2022-09-25T02:31:57.446Z,8.10
2022-09-25T02:34:24.914Z,8.20
2022-09-25T02:36:52.242Z,8.30
2022-09-25T02:39:24.671Z,8.40
2022-09-25T02:42:29.866Z,8.50
2022-09-25T02:44:59.771Z,8.60
2022-09-25T02:47:59.046Z,8.50
2022-09-25T02:50:54.871Z,8.40
2022-09-25T02:53:30.716Z,8.20
2022-09-25T02:56:05.982Z,8.10
2022-09-25T02:58:54.244Z,8.10
2022-09-25T03:01:24.739Z,8.00
2022-09-25T03:03:54.741Z,8.00
2022-09-25T03:06:23.331Z,8.00
2022-09-25T03:08:56.930Z,8.00
2022-09-25T03:11:27.080Z,8.10
2022-09-25T03:13:58.450Z,8.10
2022-09-25T03:16:53.224Z,7.90
2022-09-25T03:19:20.385Z,7.80
2022-09-25T03:21:47.991Z,7.80
2022-09-25T03:24:15.971Z,7.80
2022-09-25T03:26:43.439Z,7.80
2022-09-25T03:29:13.053Z,8.00
2022-09-25T03:31:41.730Z,8.10
2022-09-25T03:34:11.229Z,8.20
2022-09-25T03:36:38.359Z,8.20
2022-09-25T03:39:06.832Z,8.20
2022-09-25T03:41:35.462Z,8.20
2022-09-25T03:44:03.890Z,8.10
2022-09-25T03:46:34.216Z,8.10
2022-09-25T03:49:02.672Z,8.10
2022-09-25T03:51:30.982Z,7.90
2022-09-25T03:53:58.315Z,7.90
2022-09-25T03:56:27.728Z,7.90
2022-09-25T03:58:55.495Z,8.00
2022-09-25T04:01:24.435Z,8.00
2022-09-25T04:03:52.060Z,8.00
2022-09-25T04:06:24.495Z,8.00
2022-09-25T04:08:53.302Z,8.10
2022-09-25T04:11:23.070Z,8.30
2022-09-25T04:13:50.440Z,8.30
2022-09-25T04:16:30.454Z,8.30
2022-09-25T04:18:58.297Z,8.30
2022-09-25T04:21:25.650Z,8.20
2022-09-25T04:24:11.488Z,8.20
2022-09-25T04:26:38.690Z,8.20
2022-09-25T04:29:06.215Z,8.30
2022-09-25T04:31:37.572Z,8.40
2022-09-25T04:34:05.564Z,8.40
2022-09-25T04:36:32.810Z,8.50
2022-09-25T04:38:59.996Z,8.40
2022-09-25T04:41:27.687Z,8.40
2022-09-25T04:43:54.931Z,8.30
2022-09-25T04:46:22.946Z,8.20
2022-09-25T04:48:53.462Z,8.20
2022-09-25T04:51:22.118Z,8.30
2022-09-25T04:53:49.766Z,8.30
2022-09-25T04:56:17.537Z,8.10
2022-09-25T04:58:50.335Z,8.30
2022-09-25T05:01:20.921Z,8.30
2022-09-25T05:03:50.425Z,8.30
2022-09-25T05:06:17.730Z,8.20
2022-09-25T05:08:45.100Z,8.40
2022-09-25T05:11:12.309Z,8.50
2022-09-25T05:13:39.498Z,8.50
2022-09-25T05:16:07.119Z,8.40
2022-09-25T05:18:34.409Z,8.30
2022-09-25T05:21:05.085Z,8.20
2022-09-25T05:23:32.420Z,8.20
2022-09-25T05:26:00.849Z,8.30
2022-09-25T05:28:29.457Z,8.40
2022-09-25T05:31:01.658Z,8.60
2022-09-25T05:33:29.288Z,8.70
2022-09-25T05:36:00.731Z,8.70
2022-09-25T05:38:29.241Z,8.80
2022-09-25T05:41:01.038Z,8.80
2022-09-25T05:43:28.399Z,8.80
2022-09-25T05:45:56.167Z,8.80
2022-09-25T05:48:23.676Z,8.80
2022-09-25T05:50:52.640Z,8.90
2022-09-25T05:53:19.993Z,8.80
2022-09-25T05:55:55.025Z,8.90
2022-09-25T05:58:23.701Z,8.90
2022-09-25T06:00:51.414Z,9.00
2022-09-25T06:03:19.811Z,9.00
2022-09-25T06:05:47.480Z,9.20
2022-09-25T06:08:15.595Z,9.40
2022-09-25T06:10:43.246Z,9.60
2022-09-25T06:13:10.771Z,9.80
2022-09-25T06:15:42.013Z,9.90
2022-09-25T06:18:09.870Z,10.00
2022-09-25T06:20:37.178Z,10.10
2022-09-25T06:23:04.338Z,10.10
2022-09-25T06:25:36.640Z,10.10
2022-09-25T06:28:04.757Z,10.20
2022-09-25T06:30:34.717Z,10.20
2022-09-25T06:33:04.556Z,10.20
2022-09-25T06:35:31.979Z,10.10
2022-09-25T06:38:00.956Z,10.20
2022-09-25T06:40:31.477Z,10.40
2022-09-25T06:43:04.038Z,10.30
2022-09-25T06:45:35.520Z,10.20
2022-09-25T06:48:05.681Z,10.40
2022-09-25T06:50:54.016Z,10.60
2022-09-25T06:53:23.609Z,10.80
2022-09-25T06:55:51.210Z,10.90
2022-09-25T06:58:23.068Z,11.10
2022-09-25T07:00:52.354Z,11.20
2022-09-25T07:03:38.649Z,11.40
2022-09-25T07:06:07.990Z,11.50
2022-09-25T07:08:35.553Z,11.50
2022-09-25T07:11:03.347Z,11.40
2022-09-25T07:13:33.572Z,11.50
2022-09-25T07:16:05.910Z,11.60
2022-09-25T07:18:33.948Z,11.70
2022-09-25T07:21:09.470Z,11.80
2022-09-25T07:23:38.033Z,11.90
2022-09-25T07:26:11.639Z,11.90
2022-09-25T07:28:41.117Z,11.80
2022-09-25T07:31:19.895Z,11.90
2022-09-25T07:33:47.603Z,11.90
2022-09-25T07:36:16.380Z,11.90
2022-09-25T07:38:46.255Z,12.20
2022-09-25T07:41:13.705Z,12.40
2022-09-25T07:43:43.630Z,12.60
2022-09-25T07:46:11.981Z,12.50
2022-09-25T07:48:39.210Z,12.70
2022-09-25T07:51:10.576Z,12.80
2022-09-25T07:53:39.494Z,13.00
2022-09-25T07:56:07.397Z,13.10
2022-09-25T07:58:39.072Z,13.50
2022-09-25T08:01:08.544Z,13.50
2022-09-25T08:03:36.044Z,13.70
2022-09-25T08:06:06.595Z,14.30
2022-09-25T08:08:34.672Z,14.20
2022-09-25T08:11:07.623Z,14.50
2022-09-25T08:13:35.750Z,14.90
2022-09-25T08:16:09.086Z,15.00
2022-09-25T08:18:36.293Z,15.30
2022-09-25T08:21:06.527Z,15.40
2022-09-25T08:23:34.008Z,14.40
2022-09-25T08:26:02.098Z,14.40
2022-09-25T08:28:29.600Z,14.80
2022-09-25T08:30:59.799Z,15.30
2022-09-25T08:33:27.695Z,15.70
2022-09-25T08:36:00.422Z,15.90
2022-09-25T08:38:29.346Z,15.90
2022-09-25T08:41:04.903Z,15.60
2022-09-25T08:43:35.890Z,15.40
2022-09-25T08:46:27.003Z,15.70
2022-09-25T08:49:02.587Z,15.70
2022-09-25T08:51:31.674Z,16.20
2022-09-25T08:54:00.205Z,16.50
2022-09-25T08:56:32.733Z,16.70
2022-09-25T08:59:12.716Z,16.60
2022-09-25T09:02:12.165Z,16.00
2022-09-25T09:04:46.806Z,16.40
2022-09-25T09:07:27.688Z,16.80
2022-09-25T09:10:17.083Z,17.00
2022-09-25T09:12:52.991Z,16.10
2022-09-25T09:15:46.589Z,16.30
2022-09-25T09:18:24.243Z,16.80
2022-09-25T09:20:54.746Z,16.60
2022-09-25T09:23:24.910Z,17.20
2022-09-25T09:26:04.140Z,17.50
2022-09-25T09:29:03.321Z,17.40
2022-09-25T09:31:41.770Z,17.70
2022-09-25T09:34:53.203Z,17.50
2022-09-25T09:38:00.574Z,17.50
2022-09-25T09:40:42.804Z,17.50
2022-09-25T09:43:31.787Z,17.80
2022-09-25T09:46:18.521Z,17.80
2022-09-25T09:49:02.279Z,17.40
2022-09-25T09:51:37.031Z,17.30
2022-09-25T09:54:12.917Z,17.50
2022-09-25T09:56:43.759Z,17.70
2022-09-25T09:59:24.764Z,17.40
2022-09-25T10:02:06.029Z,17.50
2022-09-25T10:04:40.014Z,18.00
2022-09-25T10:07:13.967Z,17.50
2022-09-25T10:09:41.167Z,17.70
2022-09-25T10:12:14.834Z,17.30
2022-09-25T10:14:46.558Z,17.10
2022-09-25T10:17:14.849Z,16.90
2022-09-25T10:20:21.788Z,17.20
2022-09-25T10:22:53.396Z,16.60
2022-09-25T10:25:38.479Z,17.10
2022-09-25T10:28:29.127Z,17.20
2022-09-25T10:30:58.248Z,17.00
2022-09-25T10:33:28.540Z,16.70
2022-09-25T10:35:56.410Z,17.20
2022-09-25T10:38:39.015Z,17.00
2022-09-25T10:41:10.092Z,17.00
2022-09-25T10:43:52.464Z,17.10
2022-09-25T10:46:46.934Z,17.10
2022-09-25T10:49:44.461Z,17.10
2022-09-25T10:52:14.673Z,17.00
2022-09-25T10:54:45.756Z,17.00
2022-09-25T10:57:34.384Z,16.80
2022-09-25T11:00:03.668Z,17.00
2022-09-25T11:02:41.539Z,16.90
2022-09-25T11:05:18.302Z,17.00
2022-09-25T11:07:55.219Z,16.50
2022-09-25T11:10:31.281Z,16.40
2022-09-25T11:12:59.076Z,16.60
2022-09-25T11:15:27.999Z,16.50
2022-09-25T11:17:57.345Z,16.60
2022-09-25T11:20:29.900Z,16.30
2022-09-25T11:23:09.210Z,16.20
2022-09-25T11:25:40.844Z,16.50
2022-09-25T11:28:27.410Z,16.50
2022-09-25T11:31:24.545Z,16.20
2022-09-25T11:34:00.736Z,16.20
2022-09-25T11:36:35.493Z,16.20
2022-09-25T11:39:29.186Z,16.40
2022-09-25T11:42:31.797Z,16.20
2022-09-25T11:45:36.652Z,15.90
2022-09-25T11:48:06.918Z,16.00
2022-09-25T11:50:59.164Z,15.90
2022-09-25T11:53:57.233Z,16.40
2022-09-25T11:56:34.577Z,16.40
2022-09-25T11:59:30.178Z,16.60
2022-09-25T12:02:30.835Z,16.60
2022-09-25T12:05:01.167Z,16.20
2022-09-25T12:07:58.614Z,16.60
2022-09-25T12:10:55.065Z,16.40
2022-09-25T12:13:54.898Z,16.60
2022-09-25T12:16:21.993Z,17.10
2022-09-25T12:19:33.768Z,16.70
2022-09-25T12:22:06.539Z,16.70
2022-09-25T12:24:44.995Z,16.80
2022-09-25T12:27:21.215Z,16.60
2022-09-25T12:30:06.980Z,16.90
2022-09-25T12:33:02.608Z,17.00
2022-09-25T12:35:50.904Z,16.90
2022-09-25T12:38:20.934Z,16.60
2022-09-25T12:41:01.111Z,15.90
2022-09-25T12:43:53.234Z,15.90
2022-09-25T12:46:29.994Z,15.60
2022-09-25T12:49:08.806Z,15.30
2022-09-25T12:51:48.421Z,15.30
2022-09-25T12:54:47.897Z,15.20
2022-09-25T12:57:49.531Z,15.20
2022-09-25T13:00:25.909Z,15.20
2022-09-25T13:03:25.187Z,15.30
2022-09-25T13:06:06.357Z,15.10
2022-09-25T13:08:52.923Z,15.10
2022-09-25T13:11:30.581Z,15.00
2022-09-25T13:13:59.555Z,15.30
2022-09-25T13:16:26.853Z,15.80
2022-09-25T13:19:12.042Z,16.20
2022-09-25T13:21:43.156Z,16.10
2022-09-25T13:24:15.363Z,16.30
2022-09-25T13:26:52.926Z,16.50
2022-09-25T13:29:38.961Z,16.40
2022-09-25T13:32:08.146Z,16.70
2022-09-25T13:34:39.321Z,16.40
2022-09-25T13:37:10.382Z,16.10
2022-09-25T13:40:00.009Z,15.90
2022-09-25T13:42:48.397Z,16.00
2022-09-25T13:45:34.255Z,16.00
2022-09-25T13:48:10.431Z,15.90
2022-09-25T13:50:40.244Z,16.00
2022-09-25T13:53:20.485Z,16.00
2022-09-25T13:55:50.824Z,16.00
2022-09-25T13:58:22.916Z,16.00
2022-09-25T14:00:57.579Z,16.00
2022-09-25T14:03:50.265Z,15.80
2022-09-25T14:06:36.899Z,15.90
2022-09-25T14:09:19.959Z,15.90
2022-09-25T14:12:15.143Z,15.90
2022-09-25T14:14:55.158Z,15.80
2022-09-25T14:17:24.790Z,15.90
2022-09-25T14:19:54.958Z,15.70
2022-09-25T14:22:46.627Z,15.70
2022-09-25T14:25:34.018Z,15.60
2022-09-25T14:28:03.084Z,15.60
2022-09-25T14:30:32.696Z,15.40
2022-09-25T14:33:28.423Z,15.20
2022-09-25T14:36:11.652Z,15.00
2022-09-25T14:39:05.247Z,14.70
2022-09-25T14:41:54.641Z,14.60
2022-09-25T14:44:24.082Z,14.50
2022-09-25T14:46:53.567Z,14.20
2022-09-25T14:49:38.705Z,14.10
2022-09-25T14:52:10.960Z,13.80
2022-09-25T14:54:44.558Z,13.70
2022-09-25T14:57:16.267Z,13.50
2022-09-25T14:59:49.820Z,13.40
2022-09-25T15:02:20.145Z,13.30
2022-09-25T15:04:47.767Z,13.20
2022-09-25T15:07:23.478Z,13.30
2022-09-25T15:09:55.433Z,13.30
2022-09-25T15:12:29.457Z,13.20
2022-09-25T15:15:14.173Z,13.10
2022-09-25T15:17:53.246Z,12.90
2022-09-25T15:20:24.568Z,12.80
2022-09-25T15:22:59.818Z,12.90
2022-09-25T15:25:39.763Z,12.90
2022-09-25T15:28:15.784Z,12.70
2022-09-25T15:30:46.546Z,12.70
2022-09-25T15:33:29.332Z,12.70
2022-09-25T15:36:24.063Z,12.60
2022-09-25T15:39:03.593Z,12.70
2022-09-25T15:41:30.871Z,12.80
2022-09-25T15:44:22.285Z,12.70
2022-09-25T15:47:02.044Z,12.70
2022-09-25T15:49:40.891Z,12.70
2022-09-25T15:52:38.444Z,12.70
2022-09-25T15:55:15.395Z,12.50
2022-09-25T15:57:42.987Z,12.60
2022-09-25T16:00:44.146Z,12.50
2022-09-25T16:03:39.256Z,12.30
2022-09-25T16:06:07.673Z,12.20
2022-09-25T16:08:36.865Z,12.10
2022-09-25T16:11:21.959Z,11.90
2022-09-25T16:13:55.058Z,11.80
2022-09-25T16:16:29.905Z,11.70
2022-09-25T16:18:59.593Z,11.60
2022-09-25T16:21:34.042Z,11.40
2022-09-25T16:24:02.376Z,11.40
2022-09-25T16:26:42.252Z,11.30
2022-09-25T16:29:12.558Z,11.20
2022-09-25T16:31:42.552Z,11.00
2022-09-25T16:34:35.507Z,10.90
2022-09-25T16:37:05.685Z,10.80
2022-09-25T16:39:38.616Z,10.70
2022-09-25T16:42:30.984Z,10.60
2022-09-25T16:45:22.890Z,10.60
2022-09-25T16:47:50.908Z,10.50
2022-09-25T16:50:21.325Z,10.50
2022-09-25T16:52:49.283Z,10.40
2022-09-25T16:55:23.672Z,10.30
2022-09-25T16:57:53.074Z,10.20
2022-09-25T17:00:24.255Z,10.10
2022-09-25T17:02:51.900Z,10.00
2022-09-25T17:05:26.929Z,10.00
2022-09-25T17:08:00.162Z,9.90
2022-09-25T17:10:30.241Z,9.80
2022-09-25T17:13:01.331Z,9.80
2022-09-25T17:15:37.624Z,9.90
2022-09-25T17:18:13.901Z,9.90
2022-09-25T17:20:41.129Z,9.70
2022-09-25T17:23:10.993Z,9.70
2022-09-25T17:25:43.419Z,9.60
2022-09-25T17:28:12.004Z,9.50
2022-09-25T17:30:40.462Z,9.40
2022-09-25T17:33:17.598Z,9.40
2022-09-25T17:36:05.924Z,9.30
2022-09-25T17:38:34.149Z,9.20
2022-09-25T17:41:05.699Z,9.10
2022-09-25T17:43:34.244Z,9.00
2022-09-25T17:46:01.979Z,9.00
2022-09-25T17:48:31.994Z,8.90
2022-09-25T17:51:10.591Z,8.90
2022-09-25T17:53:38.616Z,8.80
2022-09-25T17:56:07.104Z,8.70
2022-09-25T17:58:34.672Z,8.70
2022-09-25T18:01:02.375Z,8.60
2022-09-25T18:03:31.240Z,8.60
2022-09-25T18:05:59.278Z,8.50
2022-09-25T18:08:28.168Z,8.50
2022-09-25T18:10:59.138Z,8.40
2022-09-25T18:13:26.726Z,8.40
2022-09-25T18:15:57.213Z,8.30
2022-09-25T18:18:27.161Z,8.30
2022-09-25T18:21:13.763Z,8.20
2022-09-25T18:23:41.343Z,8.10
2022-09-25T18:26:11.450Z,8.10
2022-09-25T18:28:38.698Z,8.00
2022-09-25T18:31:06.402Z,8.00
2022-09-25T18:33:33.976Z,7.90
2022-09-25T18:36:02.428Z,7.90
2022-09-25T18:38:29.789Z,7.80
2022-09-25T18:41:00.785Z,7.80
2022-09-25T18:43:28.930Z,7.70
2022-09-25T18:45:56.917Z,7.60
2022-09-25T18:48:25.249Z,7.60
2022-09-25T18:50:56.510Z,7.60
2022-09-25T18:53:25.221Z,7.50
2022-09-25T18:56:00.286Z,7.50
2022-09-25T18:58:29.342Z,7.40
2022-09-25T19:00:56.883Z,7.30
2022-09-25T19:03:24.943Z,7.30
2022-09-25T19:06:03.655Z,7.30
2022-09-25T19:08:32.351Z,7.30
2022-09-25T19:11:00.652Z,7.30
2022-09-25T19:13:30.235Z,7.30
2022-09-25T19:15:59.149Z,7.30
2022-09-25T19:18:28.297Z,7.20
2022-09-25T19:20:56.207Z,7.20
2022-09-25T19:23:25.281Z,7.20
2022-09-25T19:25:59.140Z,7.20
2022-09-25T19:28:27.055Z,7.10
2022-09-25T19:31:06.307Z,7.10
2022-09-25T19:33:36.873Z,7.00
2022-09-25T19:36:08.395Z,7.00
2022-09-25T19:38:38.263Z,7.00
2022-09-25T19:41:13.640Z,7.00
2022-09-25T19:43:41.268Z,7.00
2022-09-25T19:46:12.088Z,7.00
2022-09-25T19:48:39.630Z,7.00
2022-09-25T19:51:09.055Z,6.90
2022-09-25T19:53:39.108Z,6.80
2022-09-25T19:56:07.494Z,6.80
2022-09-25T19:58:39.084Z,6.80
2022-09-25T20:01:14.973Z,6.80
2022-09-25T20:03:42.836Z,6.80
2022-09-25T20:06:12.135Z,6.70
2022-09-25T20:08:39.674Z,6.70
2022-09-25T20:11:13.010Z,6.70
2022-09-25T20:13:40.527Z,6.70
2022-09-25T20:16:10.161Z,6.70
2022-09-25T20:18:37.378Z,6.60
2022-09-25T20:21:06.487Z,6.50
2022-09-25T20:23:34.330Z,6.60
2022-09-25T20:26:28.106Z,6.60
2022-09-25T20:29:17.059Z,6.60
2022-09-25T20:31:45.806Z,6.50
2022-09-25T20:34:22.323Z,6.50
2022-09-25T20:36:49.879Z,6.50
2022-09-25T20:39:21.338Z,6.50
2022-09-25T20:41:50.097Z,6.30
2022-09-25T20:44:17.305Z,6.40
2022-09-25T20:46:44.717Z,6.30
2022-09-25T20:49:12.161Z,6.30
2022-09-25T20:51:40.216Z,6.30
2022-09-25T20:54:09.210Z,6.20
2022-09-25T20:56:44.040Z,6.20
2022-09-25T20:59:12.219Z,6.10
2022-09-25T21:01:41.620Z,6.10
2022-09-25T21:04:10.081Z,6.10
2022-09-25T21:06:39.281Z,6.00
2022-09-25T21:09:10.418Z,6.00
2022-09-25T21:11:40.435Z,6.00
2022-09-25T21:14:07.735Z,5.90
2022-09-25T21:16:34.989Z,6.00
2022-09-25T21:19:04.437Z,5.90
2022-09-25T21:21:33.385Z,5.90
2022-09-25T21:24:02.596Z,5.90
2022-09-25T21:26:31.627Z,5.90
2022-09-25T21:29:04.130Z,5.90
2022-09-25T21:31:42.729Z,5.90
2022-09-25T21:34:15.466Z,5.90
2022-09-25T21:36:43.532Z,5.90
2022-09-25T21:39:10.692Z,5.90
2022-09-25T21:41:38.367Z,5.90
2022-09-25T21:44:11.610Z,5.90
2022-09-25T21:46:38.862Z,6.00
2022-09-25T21:49:07.541Z,5.90
2022-09-25T21:51:38.068Z,6.00
2022-09-25T21:54:07.943Z,6.00
2022-09-25T21:56:35.287Z,6.10
2022-09-25T21:59:08.345Z,6.10
2022-09-25T22:01:38.831Z,6.10
2022-09-25T22:04:07.717Z,6.10
2022-09-25T22:06:38.327Z,6.10
2022-09-25T22:09:20.139Z,6.10
2022-09-25T22:11:48.210Z,6.10
2022-09-25T22:14:16.794Z,6.20
2022-09-25T22:16:46.461Z,6.20
2022-09-25T22:19:18.463Z,6.10
2022-09-25T22:21:47.506Z,6.10
2022-09-25T22:24:15.395Z,6.00
2022-09-25T22:26:44.275Z,6.00
2022-09-25T22:29:12.502Z,6.00
2022-09-25T22:31:43.452Z,5.90
2022-09-25T22:34:26.892Z,5.90
2022-09-25T22:36:59.592Z,5.90
2022-09-25T22:39:28.611Z,5.90
2022-09-25T22:41:56.460Z,5.90
2022-09-25T22:44:24.364Z,5.90
2022-09-25T22:46:51.989Z,5.80
2022-09-25T22:49:19.421Z,5.90
2022-09-25T22:51:47.077Z,5.90
2022-09-25T22:54:15.549Z,6.30
2022-09-25T22:56:43.495Z,6.20
2022-09-25T22:59:14.648Z,6.10
2022-09-25T23:01:48.667Z,6.10
2022-09-25T23:04:19.088Z,6.00
2022-09-25T23:06:47.615Z,6.00
2022-09-25T23:09:20.485Z,6.00
2022-09-25T23:11:48.087Z,6.00
2022-09-25T23:14:21.516Z,6.00
2022-09-25T23:16:50.994Z,6.10
2022-09-25T23:19:19.228Z,6.10
2022-09-25T23:21:46.882Z,6.20
2022-09-25T23:24:18.058Z,6.20
2022-09-25T23:26:45.953Z,6.30
2022-09-25T23:29:15.662Z,6.40
2022-09-25T23:31:43.488Z,6.50
2022-09-25T23:34:11.164Z,6.50
2022-09-25T23:36:38.698Z,6.90
2022-09-25T23:39:08.548Z,6.90
2022-09-25T23:41:38.524Z,6.90
2022-09-25T23:44:08.519Z,7.10
2022-09-25T23:46:38.843Z,7.00
2022-09-25T23:49:06.528Z,7.00
2022-09-25T23:51:33.809Z,7.00
2022-09-25T23:54:02.373Z,6.90
2022-09-25T23:56:32.641Z,7.00
2022-09-25T23:59:03.637Z,7.00
